createdAt,value
2022-12-15T00:03:24.585Z,-14.30
2022-12-15T00:08:45.191Z,-14.38
2022-12-15T00:14:05.788Z,-14.47
2022-12-15T00:19:27.001Z,-14.40
2022-12-15T00:24:49.681Z,-14.40
2022-12-15T00:30:11.053Z,-14.45
2022-12-15T00:35:32.191Z,-14.46
2022-12-15T00:40:34.430Z,-14.56
2022-12-15T00:45:55.238Z,-14.60
2022-12-15T00:50:57.482Z,-14.55
2022-12-15T00:56:18.043Z,-14.59
2022-12-15T01:01:38.654Z,-14.58
2022-12-15T01:06:59.550Z,-14.72
2022-12-15T01:12:19.939Z,-14.78
2022-12-15T01:17:40.868Z,-14.76
2022-12-15T01:23:03.740Z,-14.80
2022-12-15T01:28:06.047Z,-14.84
2022-12-15T01:33:08.259Z,-14.89
2022-12-15T01:38:11.131Z,-14.90
2022-12-15T01:43:16.713Z,-14.92
2022-12-15T01:48:30.769Z,-14.92
2022-12-15T01:53:39.327Z,-14.94
2022-12-15T01:58:44.630Z,-14.94
2022-12-15T02:03:47.774Z,-14.91
2022-12-15T02:08:54.984Z,-14.95
2022-12-15T02:14:04.941Z,-14.97
2022-12-15T02:19:22.341Z,-14.96
2022-12-15T02:24:57.686Z,-15.01
2022-12-15T02:30:12.745Z,-15.06
2022-12-15T02:35:32.672Z,-15.10
2022-12-15T02:40:35.023Z,-15.20
2022-12-15T02:46:05.071Z,-15.21
2022-12-15T02:51:13.551Z,-15.20
2022-12-15T02:56:24.450Z,-15.21
2022-12-15T03:01:31.087Z,-15.36
2022-12-15T03:06:33.490Z,-15.34
2022-12-15T03:11:36.966Z,-15.41
2022-12-15T03:16:39.429Z,-15.45
2022-12-15T03:21:41.781Z,-15.38
2022-12-15T03:26:43.979Z,-15.48
2022-12-15T03:31:46.233Z,-15.50
2022-12-15T03:36:51.994Z,-15.50
2022-12-15T03:41:54.227Z,-15.55
2022-12-15T03:47:02.808Z,-15.50
2022-12-15T03:52:05.628Z,-15.55
2022-12-15T03:57:07.900Z,-15.64
2022-12-15T04:02:12.208Z,-15.65
2022-12-15T04:13:01.406Z,-15.60
2022-12-15T04:18:10.091Z,-15.60
2022-12-15T04:23:14.077Z,-15.62
2022-12-15T04:28:34.923Z,-15.58
2022-12-15T04:33:59.864Z,-15.62
2022-12-15T04:39:23.967Z,-15.72
2022-12-15T04:44:45.254Z,-15.59
2022-12-15T04:50:11.279Z,-15.50
2022-12-15T04:55:32.224Z,-15.37
2022-12-15T05:00:53.110Z,-15.19
2022-12-15T05:06:13.641Z,-15.02
2022-12-15T05:11:34.488Z,-15.02
2022-12-15T05:16:55.586Z,-15.21
2022-12-15T05:22:16.362Z,-15.22
2022-12-15T05:27:36.818Z,-15.13
2022-12-15T05:32:39.275Z,-15.19
2022-12-15T05:37:41.598Z,-15.15
2022-12-15T05:42:43.782Z,-15.03
2022-12-15T05:47:52.818Z,-14.92
2022-12-15T05:52:55.656Z,-14.76
2022-12-15T05:57:57.911Z,-14.61
2022-12-15T06:03:00.293Z,-14.60
2022-12-15T06:08:04.033Z,-14.58
2022-12-15T06:13:06.243Z,-14.47
2022-12-15T06:18:08.456Z,-14.26
2022-12-15T06:23:11.914Z,-14.02
2022-12-15T06:28:14.121Z,-13.76
2022-12-15T06:33:16.384Z,-13.69
2022-12-15T06:38:18.617Z,-13.59
2022-12-15T06:43:20.872Z,-13.38
2022-12-15T06:48:24.404Z,-13.16
2022-12-15T06:53:26.613Z,-12.92
2022-12-15T06:58:28.986Z,-12.75
2022-12-15T07:03:32.091Z,-12.56
2022-12-15T07:08:41.163Z,-12.44
2022-12-15T07:13:43.951Z,-12.33
2022-12-15T07:18:46.181Z,-12.16
2022-12-15T07:23:57.061Z,-11.91
2022-12-15T07:28:59.706Z,-11.62
2022-12-15T07:47:37.909Z,-10.76
2022-12-15T07:52:40.220Z,-10.51
2022-12-15T07:57:42.548Z,-10.44
2022-12-15T08:02:44.911Z,-10.25
2022-12-15T08:07:52.362Z,-9.96
2022-12-15T08:12:55.814Z,-9.74
2022-12-15T08:17:58.039Z,-9.48
2022-12-15T08:23:00.318Z,-9.28
2022-12-15T08:28:02.787Z,-9.16
2022-12-15T08:33:05.028Z,-8.81
2022-12-15T08:38:07.213Z,-8.00
2022-12-15T08:43:09.413Z,-7.11
2022-12-15T08:48:11.620Z,-6.51
2022-12-15T08:53:30.765Z,-6.09
2022-12-15T08:58:34.142Z,-5.78
2022-12-15T09:03:37.079Z,-5.67
2022-12-15T09:08:39.346Z,-5.58
2022-12-15T09:13:41.611Z,-5.73
2022-12-15T09:18:46.672Z,-5.14
2022-12-15T09:23:51.886Z,-5.03
2022-12-15T09:28:57.645Z,-4.61
2022-12-15T09:34:01.383Z,-4.94
2022-12-15T09:39:03.786Z,-5.04
2022-12-15T09:44:19.418Z,-4.43
2022-12-15T09:49:36.504Z,-4.40
2022-12-15T09:54:41.759Z,-4.13
2022-12-15T10:00:25.653Z,-3.25
2022-12-15T10:05:50.019Z,-2.74
2022-12-15T10:10:58.825Z,-2.64
2022-12-15T10:16:07.169Z,-2.23
2022-12-15T10:21:14.156Z,-2.22
2022-12-15T10:26:23.342Z,-2.03
2022-12-15T10:31:51.351Z,-2.06
2022-12-15T10:36:54.628Z,-1.84
2022-12-15T10:42:15.459Z,-1.44
2022-12-15T10:47:19.706Z,-1.25
2022-12-15T10:52:34.624Z,-1.29
2022-12-15T10:57:36.807Z,-0.89
2022-12-15T11:02:39.276Z,-0.97
2022-12-15T11:07:49.427Z,-0.60
2022-12-15T11:13:23.832Z,-1.16
2022-12-15T11:18:38.883Z,-1.46
2022-12-15T11:23:59.574Z,-2.04
2022-12-15T11:29:13.661Z,-2.76
2022-12-15T11:34:22.599Z,-3.04
2022-12-15T11:39:57.052Z,-2.52
2022-12-15T11:44:59.285Z,-3.12
2022-12-15T11:50:13.368Z,-3.17
2022-12-15T11:55:33.205Z,-2.50
2022-12-15T12:00:55.147Z,-1.91
2022-12-15T12:06:10.585Z,-1.36
2022-12-15T12:11:20.336Z,-1.66
2022-12-15T12:17:00.321Z,-1.24
2022-12-15T12:22:30.234Z,-2.00
2022-12-15T12:27:35.174Z,-2.15
2022-12-15T12:32:43.387Z,-2.27
2022-12-15T12:38:03.257Z,-2.16
2022-12-15T12:43:14.189Z,-2.38
2022-12-15T12:48:46.312Z,-2.54
2022-12-15T12:53:51.468Z,-2.93
2022-12-15T12:58:53.655Z,-2.44
2022-12-15T13:04:13.771Z,-2.07
2022-12-15T13:09:21.888Z,-2.36
2022-12-15T13:14:30.730Z,-2.10
2022-12-15T13:20:01.200Z,-2.04
2022-12-15T13:25:40.368Z,-2.18
2022-12-15T13:31:16.919Z,-2.36
2022-12-15T13:36:37.738Z,-2.62
2022-12-15T13:42:31.635Z,-2.86
2022-12-15T13:47:21.742Z,-3.42
2022-12-15T13:52:44.336Z,-3.79
2022-12-15T13:57:54.316Z,-4.06
2022-12-15T14:03:07.223Z,-4.16
2022-12-15T14:08:15.345Z,-4.42
2022-12-15T14:13:24.907Z,-4.69
2022-12-15T14:18:37.398Z,-4.90
2022-12-15T14:23:57.738Z,-4.97
2022-12-15T14:29:06.243Z,-5.08
2022-12-15T14:34:23.748Z,-5.29
2022-12-15T14:39:42.460Z,-5.42
2022-12-15T14:50:12.085Z,-5.77
2022-12-15T14:55:23.516Z,-5.94
2022-12-15T15:00:27.723Z,-6.07
2022-12-15T15:03:15.670Z,-5.58
2022-12-15T15:05:33.128Z,-6.14
2022-12-15T15:10:35.458Z,-6.31
2022-12-15T15:15:38.198Z,-6.42
2022-12-15T15:20:41.067Z,-6.61
2022-12-15T15:26:10.582Z,-6.72
2022-12-15T15:31:24.753Z,-6.81
2022-12-15T15:36:36.135Z,-6.86
2022-12-15T15:41:38.316Z,-7.05
2022-12-15T15:46:49.419Z,-7.18
2022-12-15T15:51:51.873Z,-7.32
2022-12-15T15:56:54.051Z,-7.41
2022-12-15T16:01:59.278Z,-7.47
2022-12-15T16:07:01.877Z,-7.64
2022-12-15T16:12:04.259Z,-7.78
2022-12-15T16:17:09.537Z,-7.93
2022-12-15T16:22:22.460Z,-8.02
2022-12-15T16:27:25.384Z,-8.12
2022-12-15T16:32:27.612Z,-8.26
2022-12-15T16:37:32.472Z,-8.36
2022-12-15T16:42:38.418Z,-8.44
2022-12-15T16:47:40.685Z,-8.54
2022-12-15T16:52:44.373Z,-8.61
2022-12-15T16:57:47.621Z,-8.68
2022-12-15T17:02:50.026Z,-8.73
2022-12-15T17:07:56.161Z,-8.65
2022-12-15T17:13:05.868Z,-8.56
2022-12-15T17:18:12.885Z,-8.40
2022-12-15T17:23:21.848Z,-8.33
2022-12-15T17:28:28.677Z,-8.16
2022-12-15T17:33:34.827Z,-8.02
2022-12-15T17:38:37.735Z,-8.00
2022-12-15T17:43:41.541Z,-8.21
2022-12-15T17:48:44.370Z,-8.30
2022-12-15T17:53:48.585Z,-8.37
2022-12-15T17:58:50.745Z,-8.38
2022-12-15T18:03:52.968Z,-8.40
2022-12-15T18:08:55.455Z,-8.41
2022-12-15T18:13:58.159Z,-8.20
2022-12-15T18:19:01.105Z,-8.24
2022-12-15T18:24:04.279Z,-8.35
2022-12-15T18:29:18.121Z,-8.37
2022-12-15T18:34:23.125Z,-8.50
2022-12-15T18:39:26.214Z,-8.54
2022-12-15T18:44:31.888Z,-8.59
2022-12-15T18:49:34.140Z,-8.63
2022-12-15T18:54:36.428Z,-8.57
2022-12-15T18:59:38.569Z,-8.77
2022-12-15T19:04:40.739Z,-8.96
2022-12-15T19:09:42.988Z,-9.06
2022-12-15T19:14:50.513Z,-9.14
2022-12-15T19:20:11.276Z,-9.20
2022-12-15T19:25:27.196Z,-9.26
2022-12-15T19:30:41.693Z,-9.32
2022-12-15T19:35:51.148Z,-9.31
2022-12-15T19:40:55.108Z,-9.37
2022-12-15T19:45:57.796Z,-9.47
2022-12-15T19:51:00.178Z,-9.51
2022-12-15T19:56:02.411Z,-9.61
2022-12-15T20:01:07.184Z,-9.63
2022-12-15T20:06:17.278Z,-9.70
2022-12-15T20:11:32.339Z,-9.76
2022-12-15T20:16:34.573Z,-9.87
2022-12-15T20:21:38.854Z,-9.91
2022-12-15T20:26:42.624Z,-9.95
2022-12-15T20:31:44.843Z,-9.99
2022-12-15T20:36:50.149Z,-10.02
2022-12-15T20:41:53.398Z,-10.09
2022-12-15T20:46:55.768Z,-10.16
2022-12-15T20:51:57.942Z,-10.21
2022-12-15T20:57:00.192Z,-10.30
2022-12-15T21:02:02.536Z,-10.31
2022-12-15T21:07:06.076Z,-10.37
2022-12-15T21:12:21.013Z,-10.44
2022-12-15T21:17:27.008Z,-10.50
2022-12-15T21:22:29.294Z,-10.55
2022-12-15T21:27:31.499Z,-10.61
2022-12-15T21:32:33.643Z,-10.63
2022-12-15T21:37:36.392Z,-10.66
2022-12-15T21:42:38.915Z,-10.71
2022-12-15T21:48:00.348Z,-10.70
2022-12-15T21:53:03.912Z,-10.78
2022-12-15T21:58:18.244Z,-10.83
2022-12-15T22:03:20.467Z,-10.83
2022-12-15T22:08:23.116Z,-10.87
2022-12-15T22:13:25.341Z,-10.89
2022-12-15T22:18:27.583Z,-10.97
2022-12-15T22:23:29.971Z,-11.01
2022-12-15T22:28:32.696Z,-11.08
2022-12-15T22:33:35.327Z,-11.13
2022-12-15T22:38:37.594Z,-11.15
2022-12-15T22:43:43.366Z,-11.21
